Time;durP1;ratioP1;P1;durP2;ratioP2;P2;SDS_P1;SDS_P2;PMS_P1;PMS_P2;Temp;Humidity;BMP_temperature;BMP_pressure;BME280_temperature;BME280_humidity;BME280_pressure;Samples;Min_cycle;Max_cycle;Signal;HPM_P1;HPM_P2
2023/08/17 00:01:47;;;;;;;4.00;2.40;;;;;;;;;;6156198;23;20435;-60
2023/08/17 00:04:16;;;;;;;3.40;2.30;;;;;;;;;;6156240;23;20489;-60
2023/08/17 00:06:43;;;;;;;6.33;2.83;;;;;;;;;;6156095;23;20407;-60
2023/08/17 00:09:10;;;;;;;2.10;2.00;;;;;;;;;;6156264;23;20438;-60
2023/08/17 00:11:39;;;;;;;3.20;2.57;;;;;;;;;;6156283;23;20410;-60
2023/08/17 00:14:08;;;;;;;2.80;2.57;;;;;;;;;;6156131;23;20800;-60
2023/08/17 00:16:35;;;;;;;2.87;2.67;;;;;;;;;;6155996;23;20466;-60
2023/08/17 00:19:02;;;;;;;4.40;2.77;;;;;;;;;;6156159;23;20956;-60
2023/08/17 00:21:30;;;;;;;2.33;2.10;;;;;;;;;;6155985;23;20414;-60
2023/08/17 00:23:59;;;;;;;2.50;2.30;;;;;;;;;;6155720;23;20895;-60
2023/08/17 00:26:26;;;;;;;2.73;2.50;;;;;;;;;;6156043;23;20804;-60
2023/08/17 00:28:52;;;;;;;3.30;2.47;;;;;;;;;;6156127;23;20883;-60
2023/08/17 00:31:19;;;;;;;2.93;2.73;;;;;;;;;;6156100;23;20495;-60
2023/08/17 00:33:48;;;;;;;3.33;2.67;;;;;;;;;;6155706;23;20961;-60
2023/08/17 00:36:15;;;;;;;4.67;3.03;;;;;;;;;;6155945;23;20490;-59
2023/08/17 00:38:43;;;;;;;4.43;2.53;;;;;;;;;;6155948;23;20822;-60
2023/08/17 00:41:10;;;;;;;3.17;2.40;;;;;;;;;;6156046;23;20784;-60
2023/08/17 00:43:37;;;;;;;2.87;2.67;;;;;;;;;;6156121;23;20494;-60
2023/08/17 00:46:04;;;;;;;3.87;2.43;;;;;;;;;;6156039;23;20493;-60
2023/08/17 00:48:31;;;;;;;5.80;2.50;;;;;;;;;;6156071;23;20482;-60
2023/08/17 00:50:59;;;;;;;3.53;2.80;;;;;;;;;;6155512;23;20938;-60
2023/08/17 00:53:27;;;;;;;3.23;2.93;;;;;;;;;;6155947;23;20407;-60
2023/08/17 00:55:56;;;;;;;2.80;2.60;;;;;;;;;;6155913;23;20489;-60
2023/08/17 00:58:23;;;;;;;6.80;2.40;;;;;;;;;;6155339;23;20965;-60
2023/08/17 01:00:50;;;;;;;5.00;2.33;;;;;;;;;;6155631;23;20978;-60
2023/08/17 01:03:18;;;;;;;2.93;2.50;;;;;;;;;;6155903;23;20407;-59
2023/08/17 01:05:45;;;;;;;3.73;2.53;;;;;;;;;;6155833;23;20502;-60
2023/08/17 01:08:12;;;;;;;2.60;2.50;;;;;;;;;;6155952;23;20502;-60
2023/08/17 01:10:41;;;;;;;2.83;2.63;;;;;;;;;;6155966;23;20525;-60
2023/08/17 01:13:11;;;;;;;2.90;2.50;;;;;;;;;;6155821;23;20765;-59
2023/08/17 01:15:38;;;;;;;5.53;3.10;;;;;;;;;;6165293;23;20931;-60
2023/08/17 01:18:10;;;;;;;3.00;2.80;;;;;;;;;;6155740;23;20502;-60
2023/08/17 01:20:39;;;;;;;4.60;2.73;;;;;;;;;;6165274;23;20787;-62
2023/08/17 01:23:08;;;;;;;2.67;2.40;;;;;;;;;;6155715;23;20495;-60
2023/08/17 01:25:37;;;;;;;4.73;2.60;;;;;;;;;;6155725;23;20489;-60
2023/08/17 01:28:05;;;;;;;3.10;2.83;;;;;;;;;;6155730;23;20760;-59
2023/08/17 01:30:34;;;;;;;3.20;2.83;;;;;;;;;;6155752;23;20422;-60
2023/08/17 01:33:05;;;;;;;3.03;2.47;;;;;;;;;;6156952;23;20482;-59
2023/08/17 01:35:33;;;;;;;3.07;2.77;;;;;;;;;;6167345;23;20427;-60
2023/08/17 01:38:03;;;;;;;2.73;2.47;;;;;;;;;;6157464;23;20435;-60
2023/08/17 01:40:35;;;;;;;2.60;2.50;;;;;;;;;;6157323;23;20661;-60
2023/08/17 01:43:02;;;;;;;6.77;3.07;;;;;;;;;;6166925;23;20395;-60
2023/08/17 01:45:29;;;;;;;3.17;2.80;;;;;;;;;;6157452;23;20772;-60
2023/08/17 01:47:58;;;;;;;3.87;2.70;;;;;;;;;;6157457;23;20497;-61
2023/08/17 01:50:25;;;;;;;5.00;2.50;;;;;;;;;;6156884;23;20509;-59
2023/08/17 01:52:52;;;;;;;4.97;2.63;;;;;;;;;;6157481;23;20495;-61
2023/08/17 01:55:20;;;;;;;2.60;2.40;;;;;;;;;;6157482;23;20403;-60
2023/08/17 01:57:48;;;;;;;3.20;2.90;;;;;;;;;;6157345;23;20403;-59
2023/08/17 02:00:16;;;;;;;3.20;2.50;;;;;;;;;;6157102;23;20527;-60
2023/08/17 02:02:42;;;;;;;5.30;2.80;;;;;;;;;;6157331;23;20481;-60
2023/08/17 02:05:10;;;;;;;6.97;3.50;;;;;;;;;;6157368;23;20489;-60
2023/08/17 02:07:37;;;;;;;3.30;3.00;;;;;;;;;;6157248;23;20414;-60
2023/08/17 02:10:04;;;;;;;3.03;2.53;;;;;;;;;;6157235;23;20494;-60
2023/08/17 02:12:31;;;;;;;3.20;2.53;;;;;;;;;;6157157;23;20411;-60
2023/08/17 02:14:59;;;;;;;6.30;3.00;;;;;;;;;;6157299;23;20477;-60
2023/08/17 02:17:26;;;;;;;5.10;2.57;;;;;;;;;;6157197;23;20486;-60
2023/08/17 02:19:53;;;;;;;4.70;2.50;;;;;;;;;;6157063;23;20461;-60
2023/08/17 02:22:20;;;;;;;3.70;2.33;;;;;;;;;;6157168;23;20497;-60
2023/08/17 02:24:47;;;;;;;4.50;2.67;;;;;;;;;;6157128;23;20494;-60
2023/08/17 02:27:14;;;;;;;2.97;2.77;;;;;;;;;;6157112;23;20476;-60
2023/08/17 02:29:41;;;;;;;5.87;2.63;;;;;;;;;;6157117;23;20446;-60
2023/08/17 02:32:10;;;;;;;4.40;3.63;;;;;;;;;;6157156;23;20485;-60
2023/08/17 02:34:36;;;;;;;5.80;2.77;;;;;;;;;;6156938;23;20716;-60
2023/08/17 02:37:03;;;;;;;2.77;2.57;;;;;;;;;;6157079;23;20494;-60
2023/08/17 02:39:30;;;;;;;4.50;3.13;;;;;;;;;;6156947;23;20522;-60
2023/08/17 02:41:57;;;;;;;4.40;2.40;;;;;;;;;;6156945;23;20411;-62
2023/08/17 02:44:24;;;;;;;4.10;2.80;;;;;;;;;;6156865;23;20438;-60
2023/08/17 02:46:51;;;;;;;4.70;2.77;;;;;;;;;;6156961;23;20498;-60
2023/08/17 02:49:20;;;;;;;6.00;2.83;;;;;;;;;;6156625;23;20473;-60
2023/08/17 02:51:47;;;;;;;3.10;2.80;;;;;;;;;;6166629;23;20399;-60
2023/08/17 02:54:13;;;;;;;2.60;2.40;;;;;;;;;;6156921;23;20439;-60
2023/08/17 02:56:40;;;;;;;5.53;3.00;;;;;;;;;;6156865;23;20493;-60
2023/08/17 02:59:07;;;;;;;3.83;3.50;;;;;;;;;;6156342;23;21013;-60
2023/08/17 03:01:34;;;;;;;2.27;2.07;;;;;;;;;;6156774;23;20486;-60
2023/08/17 03:04:01;;;;;;;3.00;2.80;;;;;;;;;;6156730;23;20438;-60
2023/08/17 03:06:29;;;;;;;5.73;2.67;;;;;;;;;;6156312;23;20939;-60
2023/08/17 03:08:56;;;;;;;3.00;2.70;;;;;;;;;;6156627;23;20796;-60
2023/08/17 03:11:23;;;;;;;3.67;3.37;;;;;;;;;;6156637;23;20486;-60
2023/08/17 03:13:50;;;;;;;3.40;2.70;;;;;;;;;;6156711;23;20493;-60
2023/08/17 03:16:17;;;;;;;4.43;3.03;;;;;;;;;;6156696;23;20407;-59
2023/08/17 03:18:44;;;;;;;3.07;2.80;;;;;;;;;;6156574;23;20407;-60
2023/08/17 03:21:11;;;;;;;4.83;2.60;;;;;;;;;;6156645;23;20494;-60
2023/08/17 03:23:39;;;;;;;4.20;3.00;;;;;;;;;;6156519;23;20414;-60
2023/08/17 03:26:06;;;;;;;4.17;2.80;;;;;;;;;;6156474;23;20430;-60
2023/08/17 03:28:32;;;;;;;2.93;2.60;;;;;;;;;;6156162;23;20978;-60
2023/08/17 03:30:59;;;;;;;3.00;2.60;;;;;;;;;;6156501;23;20505;-60
2023/08/17 03:33:26;;;;;;;4.97;2.57;;;;;;;;;;6156113;23;20403;-60
2023/08/17 03:35:53;;;;;;;4.17;2.40;;;;;;;;;;6156439;23;20453;-59
2023/08/17 03:38:20;;;;;;;2.93;2.70;;;;;;;;;;6156369;23;20490;-60
2023/08/17 03:40:49;;;;;;;7.37;2.60;;;;;;;;;;6156353;23;20529;-60
2023/08/17 03:43:16;;;;;;;5.97;2.80;;;;;;;;;;6156218;23;20485;-61
2023/08/17 03:45:43;;;;;;;2.60;2.40;;;;;;;;;;6156233;23;20490;-60
2023/08/17 03:48:10;;;;;;;2.60;2.40;;;;;;;;;;6155960;23;20926;-60
2023/08/17 03:50:37;;;;;;;4.13;2.60;;;;;;;;;;6155909;23;20458;-60
2023/08/17 03:53:04;;;;;;;2.83;2.63;;;;;;;;;;6156345;23;20430;-60
2023/08/17 03:55:31;;;;;;;2.97;2.33;;;;;;;;;;6156086;23;20486;-60
2023/08/17 03:57:59;;;;;;;3.80;3.10;;;;;;;;;;6156289;23;20434;-60
2023/08/17 04:00:26;;;;;;;3.87;2.70;;;;;;;;;;6155940;23;20521;-60
2023/08/17 04:02:53;;;;;;;2.53;2.33;;;;;;;;;;6156184;23;20931;-60
2023/08/17 04:05:20;;;;;;;3.00;2.70;;;;;;;;;;6156135;23;20489;-60
2023/08/17 04:07:48;;;;;;;2.80;2.60;;;;;;;;;;6156225;23;20494;-59
2023/08/17 04:10:15;;;;;;;4.00;3.00;;;;;;;;;;6156077;23;20417;-59
2023/08/17 04:12:41;;;;;;;3.63;2.40;;;;;;;;;;6156472;23;20641;-59
2023/08/17 04:15:10;;;;;;;2.60;2.40;;;;;;;;;;6156143;23;20800;-60
2023/08/17 04:17:36;;;;;;;4.63;2.50;;;;;;;;;;6156029;23;20455;-62
2023/08/17 04:20:04;;;;;;;2.50;2.23;;;;;;;;;;6155588;23;20442;-60
2023/08/17 04:22:31;;;;;;;3.37;2.50;;;;;;;;;;6156034;23;20490;-60
2023/08/17 04:24:58;;;;;;;3.40;2.70;;;;;;;;;;6155615;23;20898;-60
2023/08/17 04:27:25;;;;;;;2.37;2.17;;;;;;;;;;6156089;23;20486;-60
2023/08/17 04:29:52;;;;;;;2.70;2.40;;;;;;;;;;6156048;23;20518;-60
2023/08/17 04:32:20;;;;;;;9.17;3.13;;;;;;;;;;6156093;23;20499;-60
2023/08/17 04:34:48;;;;;;;3.03;2.00;;;;;;;;;;6155563;23;20962;-60
2023/08/17 04:37:15;;;;;;;2.97;2.67;;;;;;;;;;6155931;23;20719;-60
2023/08/17 04:39:43;;;;;;;2.57;2.37;;;;;;;;;;6155945;23;20513;-59
2023/08/17 04:42:10;;;;;;;5.10;3.20;;;;;;;;;;6155858;23;20713;-60
2023/08/17 04:44:38;;;;;;;4.40;2.23;;;;;;;;;;6156068;23;20810;-60
2023/08/17 04:47:05;;;;;;;7.10;2.50;;;;;;;;;;6155931;23;20800;-60
2023/08/17 04:49:33;;;;;;;2.63;2.43;;;;;;;;;;6155705;23;20438;-60
2023/08/17 04:52:00;;;;;;;2.87;2.27;;;;;;;;;;6155961;23;20485;-60
2023/08/17 04:54:27;;;;;;;4.67;2.87;;;;;;;;;;6155864;23;20482;-60
2023/08/17 04:56:54;;;;;;;5.40;2.37;;;;;;;;;;6155853;23;20946;-60
2023/08/17 04:59:20;;;;;;;6.47;2.47;;;;;;;;;;6155815;23;20494;-63
2023/08/17 05:01:47;;;;;;;2.80;2.13;;;;;;;;;;6155910;23;20490;-60
2023/08/17 05:04:14;;;;;;;3.07;2.33;;;;;;;;;;6155486;23;20902;-60
2023/08/17 05:06:43;;;;;;;3.67;2.43;;;;;;;;;;6156206;23;20886;-60
2023/08/17 05:09:10;;;;;;;2.30;2.03;;;;;;;;;;6157578;23;20413;-61
2023/08/17 05:11:36;;;;;;;5.63;2.50;;;;;;;;;;6157499;23;20493;-60
2023/08/17 05:14:03;;;;;;;2.67;2.37;;;;;;;;;;6157595;23;20489;-60
2023/08/17 05:16:30;;;;;;;3.10;2.20;;;;;;;;;;6157751;23;20783;-60
2023/08/17 05:18:59;;;;;;;2.87;2.10;;;;;;;;;;6157752;23;20489;-61
2023/08/17 05:21:26;;;;;;;3.20;2.70;;;;;;;;;;6157819;23;20501;-61
2023/08/17 05:23:54;;;;;;;2.10;1.90;;;;;;;;;;6157591;23;20411;-61
2023/08/17 05:26:21;;;;;;;3.80;2.10;;;;;;;;;;6157501;23;20752;-61
2023/08/17 05:28:48;;;;;;;2.57;2.37;;;;;;;;;;6157571;23;20438;-61
2023/08/17 05:31:15;;;;;;;2.83;2.63;;;;;;;;;;6157441;23;20406;-61
2023/08/17 05:33:42;;;;;;;2.67;2.20;;;;;;;;;;6157605;23;20406;-61
2023/08/17 05:36:09;;;;;;;3.97;2.30;;;;;;;;;;6157502;23;20485;-61
2023/08/17 05:38:36;;;;;;;2.23;2.03;;;;;;;;;;6157094;23;20966;-61
2023/08/17 05:41:04;;;;;;;5.17;2.40;;;;;;;;;;6156949;23;20442;-62
2023/08/17 05:43:31;;;;;;;2.53;2.10;;;;;;;;;;6157028;23;20926;-61
2023/08/17 05:45:59;;;;;;;2.77;2.57;;;;;;;;;;6157488;23;20466;-61
2023/08/17 05:48:26;;;;;;;2.57;2.37;;;;;;;;;;6157324;23;20403;-61
2023/08/17 05:50:53;;;;;;;3.00;2.23;;;;;;;;;;6156885;23;20941;-61
2023/08/17 05:53:19;;;;;;;2.97;2.30;;;;;;;;;;6157294;23;20445;-61
2023/08/17 05:55:46;;;;;;;2.80;1.77;;;;;;;;;;6157347;23;20497;-62
2023/08/17 05:58:15;;;;;;;3.53;2.00;;;;;;;;;;6157026;23;20978;-60
2023/08/17 06:00:42;;;;;;;3.13;2.70;;;;;;;;;;6157048;23;20438;-60
2023/08/17 06:03:09;;;;;;;4.00;1.87;;;;;;;;;;6157224;23;20414;-60
2023/08/17 06:05:36;;;;;;;3.87;2.10;;;;;;;;;;6157136;23;20795;-60
2023/08/17 06:08:03;;;;;;;2.10;2.00;;;;;;;;;;6157241;23;20493;-60
2023/08/17 06:10:30;;;;;;;4.30;2.33;;;;;;;;;;6157159;23;20414;-60
2023/08/17 06:12:57;;;;;;;4.47;3.00;;;;;;;;;;6157080;23;20498;-60
2023/08/17 06:15:26;;;;;;;2.80;1.93;;;;;;;;;;6157008;23;20489;-60
2023/08/17 06:17:53;;;;;;;3.33;2.20;;;;;;;;;;6156542;23;20461;-61
2023/08/17 06:20:20;;;;;;;2.10;2.00;;;;;;;;;;6156616;23;20946;-61
2023/08/17 06:22:49;;;;;;;3.77;2.30;;;;;;;;;;6156719;23;20413;-60
2023/08/17 06:25:16;;;;;;;4.40;2.10;;;;;;;;;;6156886;23;20407;-61
2023/08/17 06:27:44;;;;;;;5.60;2.57;;;;;;;;;;6156934;23;20406;-60
2023/08/17 06:30:13;;;;;;;3.40;2.47;;;;;;;;;;6157018;23;20411;-61
2023/08/17 06:32:41;;;;;;;3.10;2.33;;;;;;;;;;6156674;23;20407;-61
2023/08/17 06:35:08;;;;;;;3.70;3.07;;;;;;;;;;6156711;23;20441;-60
2023/08/17 06:37:35;;;;;;;2.37;1.93;;;;;;;;;;6156890;23;20409;-60
2023/08/17 06:40:03;;;;;;;2.40;2.20;;;;;;;;;;6156318;23;20966;-60
2023/08/17 06:42:30;;;;;;;4.07;2.70;;;;;;;;;;6156652;23;20407;-60
2023/08/17 06:44:57;;;;;;;2.20;1.93;;;;;;;;;;6156663;23;20494;-60
2023/08/17 06:47:24;;;;;;;2.67;2.20;;;;;;;;;;6156744;23;20890;-61
2023/08/17 06:49:52;;;;;;;2.67;2.37;;;;;;;;;;6156393;23;20513;-61
2023/08/17 06:52:19;;;;;;;2.93;2.40;;;;;;;;;;6156465;23;20489;-61
2023/08/17 06:54:46;;;;;;;4.53;2.47;;;;;;;;;;6156702;23;20490;-60
2023/08/17 06:57:12;;;;;;;3.30;1.80;;;;;;;;;;6156726;23;20510;-61
2023/08/17 06:59:40;;;;;;;4.47;2.20;;;;;;;;;;6156637;23;20433;-60
2023/08/17 07:02:07;;;;;;;3.00;2.23;;;;;;;;;;6156439;23;20470;-61
2023/08/17 07:04:34;;;;;;;2.80;2.60;;;;;;;;;;6156443;23;20434;-61
2023/08/17 07:07:02;;;;;;;4.23;2.10;;;;;;;;;;6156781;23;20450;-60
2023/08/17 07:09:29;;;;;;;2.40;2.20;;;;;;;;;;6156103;23;20941;-60
2023/08/17 07:11:56;;;;;;;2.87;2.63;;;;;;;;;;6156472;23;20418;-60
2023/08/17 07:14:23;;;;;;;2.93;2.43;;;;;;;;;;6156459;23;20406;-61
2023/08/17 07:16:50;;;;;;;2.50;2.30;;;;;;;;;;6156433;23;20416;-60
2023/08/17 07:19:16;;;;;;;2.40;2.20;;;;;;;;;;6156539;23;20809;-60
2023/08/17 07:21:43;;;;;;;2.50;2.03;;;;;;;;;;6156294;23;20496;-60
2023/08/17 07:24:15;;;;;;;4.03;2.27;;;;;;;;;;6156382;23;20498;-61
2023/08/17 07:26:43;;;;;;;3.00;2.33;;;;;;;;;;6156254;23;20942;-60
2023/08/17 07:29:11;;;;;;;2.03;1.93;;;;;;;;;;6155925;23;20494;-61
2023/08/17 07:31:38;;;;;;;2.57;2.10;;;;;;;;;;6156188;23;20434;-60
2023/08/17 07:34:05;;;;;;;1.90;1.80;;;;;;;;;;6156302;23;20494;-60
2023/08/17 07:36:32;;;;;;;4.80;2.57;;;;;;;;;;6156300;23;20490;-61
2023/08/17 07:38:59;;;;;;;2.50;2.30;;;;;;;;;;6156289;23;20438;-60
2023/08/17 07:41:27;;;;;;;2.30;2.20;;;;;;;;;;6156236;23;20443;-60
2023/08/17 07:43:54;;;;;;;2.67;2.47;;;;;;;;;;6156164;23;20411;-61
2023/08/17 07:46:21;;;;;;;4.30;2.43;;;;;;;;;;6156240;23;20498;-61
2023/08/17 07:48:48;;;;;;;2.33;2.13;;;;;;;;;;6156353;23;20764;-60
2023/08/17 07:51:16;;;;;;;4.70;2.77;;;;;;;;;;6155816;23;20474;-61
2023/08/17 07:53:43;;;;;;;4.33;3.30;;;;;;;;;;6156188;23;20490;-61
2023/08/17 07:56:10;;;;;;;2.63;2.53;;;;;;;;;;6156210;23;20434;-61
2023/08/17 07:58:39;;;;;;;3.60;2.90;;;;;;;;;;6156052;23;20681;-61
2023/08/17 08:01:06;;;;;;;2.23;2.13;;;;;;;;;;6155967;23;20533;-61
2023/08/17 08:03:33;;;;;;;3.93;2.03;;;;;;;;;;6156069;23;20406;-60
2023/08/17 08:06:00;;;;;;;2.60;2.40;;;;;;;;;;6155956;23;20735;-60
2023/08/17 08:08:27;;;;;;;2.17;2.07;;;;;;;;;;6155930;23;20441;-60
2023/08/17 08:10:55;;;;;;;3.17;2.90;;;;;;;;;;6156040;23;20411;-60
2023/08/17 08:13:22;;;;;;;2.30;2.20;;;;;;;;;;6156054;23;20410;-61
2023/08/17 08:15:50;;;;;;;3.10;2.23;;;;;;;;;;6156371;23;20466;-61
2023/08/17 08:18:18;;;;;;;3.27;2.00;;;;;;;;;;6155864;23;20429;-60
2023/08/17 08:20:45;;;;;;;3.00;2.33;;;;;;;;;;6155832;23;20494;-60
2023/08/17 08:23:13;;;;;;;4.03;3.23;;;;;;;;;;6155959;23;20485;-61
2023/08/17 08:25:40;;;;;;;3.57;2.70;;;;;;;;;;6155855;23;20779;-60
2023/08/17 08:28:08;;;;;;;3.63;2.77;;;;;;;;;;6155831;23;20407;-61
2023/08/17 08:30:35;;;;;;;5.37;2.53;;;;;;;;;;6155833;23;20399;-60
2023/08/17 08:33:03;;;;;;;3.00;2.80;;;;;;;;;;6155962;23;20716;-61
2023/08/17 08:35:30;;;;;;;2.50;2.30;;;;;;;;;;6155819;23;20486;-60
2023/08/17 08:37:58;;;;;;;2.73;2.53;;;;;;;;;;6155932;23;20788;-60
2023/08/17 08:40:29;;;;;;;2.77;2.53;;;;;;;;;;6155997;23;20403;-61
2023/08/17 08:42:57;;;;;;;7.73;3.00;;;;;;;;;;6167636;23;20431;-60
2023/08/17 08:45:25;;;;;;;3.40;2.60;;;;;;;;;;6157512;23;20953;-61
2023/08/17 08:47:52;;;;;;;3.37;3.13;;;;;;;;;;6157829;23;20407;-61
2023/08/17 08:50:22;;;;;;;3.33;2.70;;;;;;;;;;6157386;23;20807;-61
2023/08/17 08:52:52;;;;;;;2.70;2.50;;;;;;;;;;6157662;23;20433;-61
2023/08/17 08:55:19;;;;;;;3.27;2.97;;;;;;;;;;6167110;23;20399;-61
2023/08/17 08:57:49;;;;;;;3.10;2.53;;;;;;;;;;6157788;23;20414;-61
2023/08/17 09:00:16;;;;;;;5.30;2.80;;;;;;;;;;6157698;23;20410;-61
2023/08/17 09:02:44;;;;;;;3.20;3.00;;;;;;;;;;6157684;23;20530;-61
2023/08/17 09:05:11;;;;;;;3.50;3.20;;;;;;;;;;6157690;23;20459;-61
2023/08/17 09:07:40;;;;;;;2.93;2.50;;;;;;;;;;6157248;23;20489;-63
2023/08/17 09:10:07;;;;;;;3.30;3.10;;;;;;;;;;6157486;23;20945;-61
2023/08/17 09:12:34;;;;;;;5.27;3.03;;;;;;;;;;6157621;23;20497;-61
2023/08/17 09:15:01;;;;;;;2.70;2.60;;;;;;;;;;6157516;23;20486;-61
2023/08/17 09:17:28;;;;;;;4.13;3.20;;;;;;;;;;6157669;23;20481;-61
2023/08/17 09:19:56;;;;;;;2.53;2.33;;;;;;;;;;6157507;23;20469;-61
2023/08/17 09:22:26;;;;;;;4.17;2.67;;;;;;;;;;6157501;23;20525;-61
2023/08/17 09:24:54;;;;;;;3.37;3.17;;;;;;;;;;6157398;23;20442;-60
2023/08/17 09:27:21;;;;;;;2.93;2.63;;;;;;;;;;6157566;23;20787;-61
2023/08/17 09:29:50;;;;;;;3.17;2.97;;;;;;;;;;6157558;23;20413;-60
2023/08/17 09:32:17;;;;;;;3.20;3.00;;;;;;;;;;6157360;23;20485;-61
2023/08/17 09:34:45;;;;;;;3.07;2.77;;;;;;;;;;6157451;23;20493;-60
2023/08/17 09:37:14;;;;;;;3.37;3.17;;;;;;;;;;6157374;23;20489;-60
2023/08/17 09:39:40;;;;;;;3.40;3.10;;;;;;;;;;6157340;23;20406;-60
2023/08/17 09:42:09;;;;;;;6.03;3.40;;;;;;;;;;6156814;23;21020;-61
2023/08/17 09:44:36;;;;;;;3.47;3.17;;;;;;;;;;6157176;23;20787;-60
2023/08/17 09:47:03;;;;;;;2.90;2.70;;;;;;;;;;6157690;23;20490;-60
2023/08/17 09:49:32;;;;;;;3.27;3.07;;;;;;;;;;6156892;23;20514;-60
2023/08/17 09:52:00;;;;;;;3.73;3.43;;;;;;;;;;6156703;23;20430;-60
2023/08/17 09:54:27;;;;;;;3.77;3.47;;;;;;;;;;6156975;23;20486;-60
2023/08/17 09:56:54;;;;;;;3.97;2.80;;;;;;;;;;6156801;23;20957;-61
2023/08/17 09:59:23;;;;;;;3.37;3.13;;;;;;;;;;6156900;23;20493;-60
2023/08/17 10:01:51;;;;;;;3.53;3.23;;;;;;;;;;6156917;23;20450;-61
2023/08/17 10:04:20;;;;;;;4.60;3.93;;;;;;;;;;6156929;23;20788;-60
2023/08/17 10:06:49;;;;;;;3.17;2.97;;;;;;;;;;6156950;23;20489;-60
2023/08/17 10:09:19;;;;;;;3.60;3.40;;;;;;;;;;6156912;23;20413;-60
2023/08/17 10:11:47;;;;;;;4.00;3.57;;;;;;;;;;6156837;23;20411;-60
2023/08/17 10:14:17;;;;;;;5.00;4.07;;;;;;;;;;6157007;23;20490;-60
2023/08/17 10:16:46;;;;;;;3.70;3.40;;;;;;;;;;6157300;23;20473;-61
2023/08/17 10:19:17;;;;;;;3.70;3.50;;;;;;;;;;6157062;23;20414;-61
2023/08/17 10:21:48;;;;;;;3.53;3.23;;;;;;;;;;6166821;23;20461;-63
2023/08/17 10:24:15;;;;;;;5.47;4.10;;;;;;;;;;6166785;23;20482;-60
2023/08/17 10:26:42;;;;;;;4.90;3.87;;;;;;;;;;6156969;23;20477;-60
2023/08/17 10:29:09;;;;;;;3.97;3.77;;;;;;;;;;6156890;23;20510;-60
2023/08/17 10:31:36;;;;;;;3.77;3.20;;;;;;;;;;6156895;23;20917;-60
2023/08/17 10:34:04;;;;;;;4.07;3.67;;;;;;;;;;6156762;23;20431;-60
2023/08/17 10:36:32;;;;;;;4.13;3.83;;;;;;;;;;6156757;23;20447;-60
2023/08/17 10:39:18;;;;;;;3.60;3.07;;;;;;;;;;6156863;23;20517;-60
2023/08/17 10:41:47;;;;;;;4.20;3.90;;;;;;;;;;6156772;23;20521;-60
2023/08/17 10:44:14;;;;;;;4.07;3.77;;;;;;;;;;6156576;23;20430;-62
2023/08/17 10:46:43;;;;;;;3.93;3.63;;;;;;;;;;6156815;23;20482;-61
2023/08/17 10:49:25;;;;;;;3.83;3.53;;;;;;;;;;6156293;23;20784;-60
2023/08/17 10:52:01;;;;;;;4.40;4.10;;;;;;;;;;6166791;23;20458;-60
2023/08/17 10:54:39;;;;;;;4.70;4.30;;;;;;;;;;6166415;23;20473;-60
2023/08/17 10:57:24;;;;;;;5.00;4.23;;;;;;;;;;6166395;23;20767;-61
2023/08/17 11:00:07;;;;;;;3.83;3.60;;;;;;;;;;6156597;23;20494;-61
2023/08/17 11:02:34;;;;;;;6.10;3.70;;;;;;;;;;6166265;23;20755;-61
2023/08/17 11:05:03;;;;;;;3.80;3.50;;;;;;;;;;6156560;23;20441;-60
2023/08/17 11:07:40;;;;;;;4.30;4.00;;;;;;;;;;6156376;23;20473;-60
2023/08/17 11:10:12;;;;;;;4.63;4.20;;;;;;;;;;6166161;23;20715;-60
2023/08/17 11:12:39;;;;;;;3.90;3.70;;;;;;;;;;6165652;23;20418;-60
2023/08/17 11:15:06;;;;;;;4.83;4.50;;;;;;;;;;6156449;23;20805;-60
2023/08/17 11:17:33;;;;;;;4.03;3.80;;;;;;;;;;6156820;23;20442;-60
2023/08/17 11:20:00;;;;;;;4.07;3.70;;;;;;;;;;6156408;23;20494;-60
2023/08/17 11:22:28;;;;;;;4.13;3.93;;;;;;;;;;6156345;23;20446;-60
2023/08/17 11:24:55;;;;;;;5.47;4.63;;;;;;;;;;6156300;23;20494;-60
2023/08/17 11:27:22;;;;;;;4.70;4.30;;;;;;;;;;6156230;23;20419;-60
2023/08/17 11:29:49;;;;;;;5.03;4.47;;;;;;;;;;6156264;23;20407;-60
2023/08/17 11:32:17;;;;;;;4.60;4.30;;;;;;;;;;6156410;23;20796;-60
2023/08/17 11:34:44;;;;;;;4.03;3.83;;;;;;;;;;6156237;23;20418;-60
2023/08/17 11:37:12;;;;;;;4.47;4.23;;;;;;;;;;6156203;23;20406;-60
2023/08/17 11:39:40;;;;;;;4.90;4.50;;;;;;;;;;6156139;23;20445;-60
2023/08/17 11:42:07;;;;;;;4.90;4.50;;;;;;;;;;6155924;23;20461;-60
2023/08/17 11:44:34;;;;;;;4.53;4.23;;;;;;;;;;6156249;23;20503;-60
2023/08/17 11:47:02;;;;;;;4.40;4.10;;;;;;;;;;6156044;23;20411;-60
2023/08/17 11:49:31;;;;;;;5.00;4.60;;;;;;;;;;6155757;23;20942;-60
2023/08/17 11:51:58;;;;;;;4.87;4.63;;;;;;;;;;6165909;23;20724;-60
2023/08/17 11:54:25;;;;;;;4.97;4.67;;;;;;;;;;6156562;23;20497;-60
2023/08/17 11:56:53;;;;;;;4.50;4.20;;;;;;;;;;6156044;23;20498;-60
2023/08/17 11:59:20;;;;;;;5.23;4.93;;;;;;;;;;6155662;23;20958;-60
2023/08/17 12:01:49;;;;;;;4.73;4.33;;;;;;;;;;6155993;23;20950;-60
2023/08/17 12:04:16;;;;;;;5.63;5.33;;;;;;;;;;6155885;23;20435;-60
2023/08/17 12:06:44;;;;;;;5.43;5.00;;;;;;;;;;6156029;23;20737;-60
2023/08/17 12:09:13;;;;;;;6.27;5.07;;;;;;;;;;6155935;23;20411;-60
2023/08/17 12:11:43;;;;;;;5.40;5.10;;;;;;;;;;6155861;23;20407;-60
2023/08/17 12:14:12;;;;;;;4.93;4.60;;;;;;;;;;6165909;23;20771;-60
2023/08/17 12:16:47;;;;;;;4.83;4.53;;;;;;;;;;6155718;23;20486;-60
2023/08/17 12:19:14;;;;;;;5.13;4.83;;;;;;;;;;6165669;23;20851;-60
2023/08/17 12:21:42;;;;;;;5.00;4.70;;;;;;;;;;6155911;23;20490;-60
2023/08/17 12:24:10;;;;;;;4.23;3.97;;;;;;;;;;6155645;23;20521;-61
2023/08/17 12:26:37;;;;;;;4.73;4.53;;;;;;;;;;6155968;23;20438;-61
2023/08/17 12:29:08;;;;;;;6.33;4.30;;;;;;;;;;6155842;23;20486;-61
2023/08/17 12:31:37;;;;;;;5.20;4.90;;;;;;;;;;6165732;23;20474;-61
2023/08/17 12:34:04;;;;;;;4.30;4.00;;;;;;;;;;6155740;23;20445;-61
2023/08/17 12:36:31;;;;;;;4.77;4.47;;;;;;;;;;6155905;23;20797;-61
2023/08/17 12:38:59;;;;;;;5.60;4.50;;;;;;;;;;6155958;23;20776;-60
2023/08/17 12:41:26;;;;;;;6.20;4.93;;;;;;;;;;6155816;23;20494;-61
2023/08/17 12:43:54;;;;;;;4.87;4.50;;;;;;;;;;6155814;23;20474;-61
2023/08/17 12:46:21;;;;;;;5.50;4.60;;;;;;;;;;6155806;23;20474;-61
2023/08/17 12:48:49;;;;;;;4.47;4.17;;;;;;;;;;6155922;23;20490;-61
2023/08/17 12:51:16;;;;;;;5.13;4.63;;;;;;;;;;6155256;23;20517;-61
2023/08/17 12:53:43;;;;;;;5.40;5.00;;;;;;;;;;6155460;23;20963;-60
2023/08/17 12:56:10;;;;;;;4.40;4.10;;;;;;;;;;6155668;23;20407;-60
2023/08/17 12:58:37;;;;;;;4.53;4.23;;;;;;;;;;6155764;23;20469;-61
2023/08/17 13:01:05;;;;;;;5.10;4.70;;;;;;;;;;6155703;23;20495;-61
2023/08/17 13:03:32;;;;;;;5.27;4.57;;;;;;;;;;6155689;23;21041;-60
2023/08/17 13:06:00;;;;;;;4.20;4.00;;;;;;;;;;6155752;23;20513;-61
2023/08/17 13:08:27;;;;;;;5.00;4.70;;;;;;;;;;6155745;23;20966;-60
2023/08/17 13:10:54;;;;;;;5.13;4.83;;;;;;;;;;6155793;23;20435;-61
2023/08/17 13:13:21;;;;;;;4.93;4.70;;;;;;;;;;6155634;23;20485;-61
2023/08/17 13:15:48;;;;;;;4.43;4.13;;;;;;;;;;6155574;23;20498;-61
2023/08/17 13:18:15;;;;;;;4.27;3.90;;;;;;;;;;6155849;23;20485;-60
2023/08/17 13:20:42;;;;;;;4.43;4.23;;;;;;;;;;6155736;23;20407;-60
2023/08/17 13:23:11;;;;;;;5.47;4.57;;;;;;;;;;6155556;23;20434;-61
2023/08/17 13:25:39;;;;;;;4.40;4.10;;;;;;;;;;6155633;23;20494;-61
2023/08/17 13:28:06;;;;;;;4.10;3.80;;;;;;;;;;6156247;23;20498;-61
2023/08/17 13:30:33;;;;;;;4.23;3.90;;;;;;;;;;6157477;23;20441;-61
2023/08/17 13:33:00;;;;;;;4.10;3.80;;;;;;;;;;6157576;23;20810;-61
2023/08/17 13:35:27;;;;;;;4.00;3.70;;;;;;;;;;6157454;23;20406;-61
2023/08/17 13:37:54;;;;;;;4.40;4.10;;;;;;;;;;6157433;23;20438;-61
2023/08/17 13:40:22;;;;;;;4.20;3.90;;;;;;;;;;6157519;23;20434;-61
2023/08/17 13:42:49;;;;;;;4.50;4.20;;;;;;;;;;6157298;23;20522;-61
2023/08/17 13:45:16;;;;;;;3.67;3.47;;;;;;;;;;6157415;23;20486;-61
2023/08/17 13:47:43;;;;;;;4.20;3.90;;;;;;;;;;6157486;23;20494;-61
2023/08/17 13:50:10;;;;;;;7.90;4.20;;;;;;;;;;6157051;23;20454;-61
2023/08/17 13:52:37;;;;;;;3.77;3.57;;;;;;;;;;6157373;23;20407;-61
2023/08/17 13:55:05;;;;;;;3.83;3.40;;;;;;;;;;6157652;23;20489;-61
2023/08/17 13:57:33;;;;;;;4.40;4.17;;;;;;;;;;6157383;23;20494;-61
2023/08/17 14:00:00;;;;;;;4.00;3.60;;;;;;;;;;6157266;23;20490;-61
2023/08/17 14:02:26;;;;;;;3.10;2.90;;;;;;;;;;6157072;23;20489;-61
2023/08/17 14:04:53;;;;;;;4.53;4.13;;;;;;;;;;6157256;23;20514;-61
2023/08/17 14:07:20;;;;;;;3.50;3.30;;;;;;;;;;6157288;23;20485;-61
2023/08/17 14:09:47;;;;;;;4.00;3.70;;;;;;;;;;6157204;23;20490;-61
2023/08/17 14:12:14;;;;;;;4.10;3.80;;;;;;;;;;6157257;23;20494;-61
2023/08/17 14:14:42;;;;;;;4.00;3.60;;;;;;;;;;6157152;23;20506;-61
2023/08/17 14:17:09;;;;;;;3.40;3.20;;;;;;;;;;6157033;23;20445;-61
2023/08/17 14:19:36;;;;;;;4.40;3.93;;;;;;;;;;6157058;23;20798;-61
2023/08/17 14:22:03;;;;;;;3.87;3.67;;;;;;;;;;6157033;23;20489;-61
2023/08/17 14:24:30;;;;;;;4.00;3.70;;;;;;;;;;6156812;23;20489;-61
2023/08/17 14:26:58;;;;;;;4.07;3.70;;;;;;;;;;6156847;23;20978;-61
2023/08/17 14:29:24;;;;;;;3.13;2.97;;;;;;;;;;6156580;23;20907;-61
2023/08/17 14:31:53;;;;;;;3.63;3.43;;;;;;;;;;6156499;23;20407;-61
2023/08/17 14:34:21;;;;;;;3.73;3.47;;;;;;;;;;6156865;23;20494;-61
2023/08/17 14:36:48;;;;;;;4.53;3.53;;;;;;;;;;6156794;23;20414;-61
2023/08/17 14:39:15;;;;;;;3.73;3.43;;;;;;;;;;6156651;23;20761;-61
2023/08/17 14:41:42;;;;;;;3.60;3.30;;;;;;;;;;6156956;23;20784;-61
2023/08/17 14:44:08;;;;;;;3.43;3.23;;;;;;;;;;6156790;23;20529;-61
2023/08/17 14:46:35;;;;;;;3.83;3.60;;;;;;;;;;6156897;23;20500;-61